Colton, Oregon
Current Conditions -  °F | °C
As of 6:04 AM on Friday 28 Nov 2014 (Local Time) from KUAO Reporting Station
Light Rain Light Rain  
Wind Chill: 53°   Ceiling: 2900
Heat Index: 53°   Visibility: 8mi
Dew Point: 51°   Wind: 14mph
Humidity: 93%   Direction: 200°SSW
Pressure: 29.69"   Gusts: 22mph
Location:  45.17°N, 122.44°W
Report Text: KUAO 281404Z AUTO 20012G19KT 8SM -RA SCT017 SCT023 OVC029 12/11 A2969 RMK AO2 P0000 T01170106
Loading
Personal Weather Stations






























Interactive Weather Map New forecast layout! Learn more

10-Day Weather Forecast

Advertisements
Track Severe Weather on mobile